Northwest Arkansas Rgnl Information

FAA: XNA - ICAO: KXNA

Northwest Arkansas Rgnl (Airport) Location

State Arkansas
County Benton
City Fayetteville/Springdale/Rogers
Northwest Arkansas Rgnl (Airport) is 15 miles northwest of Fayetteville/Springdale/Rogers, AR.
Latitude 36-16-53.6850N
Longitude 094-18-27.9560W
Elevation 1,288ft

Northwest Arkansas Rgnl METARs

METAR KXNA 262353Z 00000KT 10SM OVC090 03/M12 A3027 RMK AO2 SLP264 T00281117 10039 21017 58008
Altimeter 30.27"
Temperature 2.8°C (37.0°F)
Wind 0° at 0KT
Clouds overcast at 9,000ft
Visibility 10.0mi
Time observed: 2022-01-26T23:53:00Z

Northwest Arkansas Rgnl (Airport) Details

Status Operational
Activation April 1997
Ownership Public
Usage Public
Chart KANSAS CITY
ATC on-site Yes
Beacon schedule sunset-sunrise
Beacon color clear green

Northwest Arkansas Rgnl (Airport) Contacts

Owner NW ARKANSAS RGNL ARPT AUTH.
Owner address 1 AIRPORT BLVD, SUITE 100, BENTONVILLE, AR 72712
Owner phone 479-205-1000
Manager BOB & PAT TETU
Manager address 4010 COUNTY ROAD 108, EUREKA SPRINGS, AR 72632
Manager phone (479) 981-9388

Northwest Arkansas Rgnl Radio Frequencies

Northwest Arkansas Rgnl (Airport) Radio Frequencies

UNICOM N/A
Common traffic advisory frequency (CTAF) 127.1